Sidney, Texas
Current Conditions -  °F | °C
As of 7:35 PM on Tuesday 21 Oct 2014 (Local Time) from KMKN Reporting Station
Clear Clear  
Wind Chill: 69°   Ceiling: Unl
Heat Index: 69°   Visibility: 10mi
Dew Point: 52°   Wind: 5mph
Humidity: 55%   Direction: 110°ESE
Pressure: 30.04"   Gusts: NA
Location:  31.94°N, 98.74°W
Report Text: KMKN 220035Z AUTO 11004KT 10SM CLR 21/11 A3004 RMK AO2 T02050112
Loading
Personal Weather Stations






























Interactive Weather Map
Tropical Storm Tracking
New forecast layout! Learn more

10-Day Weather Forecast

Advertisements
Track Severe Weather on mobile